Time;durP1;ratioP1;P1;durP2;ratioP2;P2;SDS_P1;SDS_P2;PMS_P1;PMS_P2;Temp;Humidity;BMP_temperature;BMP_pressure;BME280_temperature;BME280_humidity;BME280_pressure;Samples;Min_cycle;Max_cycle;Signal;HPM_P1;HPM_P2
2022/10/01 00:01:12;;;;;;;299.33;276.63;;;;;;;8.93;100.00;97841.75;5009574;28;20057;-41
2022/10/01 00:03:40;;;;;;;325.13;298.40;;;;;;;8.91;100.00;97840.97;5010114;28;20164;-35
2022/10/01 00:06:11;;;;;;;305.08;281.80;;;;;;;8.81;100.00;97829.38;5029301;28;20053;-39
2022/10/01 00:08:41;;;;;;;304.65;281.30;;;;;;;8.87;100.00;97821.97;5007785;28;20041;-42
2022/10/01 00:11:10;;;;;;;315.60;288.67;;;;;;;8.91;100.00;97823.47;5008768;28;20042;-43
2022/10/01 00:13:38;;;;;;;304.83;280.98;;;;;;;8.84;100.00;97822.16;5014658;28;20331;-46
2022/10/01 00:16:09;;;;;;;310.15;286.10;;;;;;;8.86;100.00;97824.69;5026382;28;20034;-42
2022/10/01 00:18:38;;;;;;;311.65;284.98;;;;;;;8.91;100.00;97822.59;5013215;28;20106;-42
2022/10/01 00:21:07;;;;;;;299.23;275.13;;;;;;;8.94;100.00;97818.03;5014133;28;20061;-45
2022/10/01 00:23:35;;;;;;;299.50;275.55;;;;;;;8.95;100.00;97816.22;5024569;28;20404;-43
2022/10/01 00:26:11;;;;;;;301.08;274.33;;;;;;;9.02;100.00;97830.66;5017504;28;20397;-44
2022/10/01 00:28:39;;;;;;;293.80;269.45;;;;;;;8.99;100.00;97828.22;5015391;28;20054;-41
2022/10/01 00:31:09;;;;;;;299.75;275.23;;;;;;;9.01;100.00;97831.63;5011552;28;20108;-42
2022/10/01 00:33:37;;;;;;;323.40;294.83;;;;;;;9.03;100.00;97825.31;5012217;28;20033;-44
2022/10/01 00:36:05;;;;;;;298.17;273.52;;;;;;;9.07;100.00;97823.38;5016191;28;20065;-42
2022/10/01 00:38:33;;;;;;;293.83;269.38;;;;;;;8.97;100.00;97828.34;5010857;28;20125;-41
2022/10/01 00:41:01;;;;;;;314.95;286.50;;;;;;;8.93;100.00;97831.25;5008476;28;20038;-41
2022/10/01 00:43:32;;;;;;;302.75;277.10;;;;;;;9.02;100.00;97828.03;5010481;28;20030;-42
2022/10/01 00:46:04;;;;;;;299.63;274.17;;;;;;;9.16;100.00;97822.78;5010061;28;20103;-43
2022/10/01 00:48:41;;;;;;;321.10;291.63;;;;;;;9.15;100.00;97823.75;5008589;28;20053;-44
2022/10/01 00:51:09;;;;;;;303.52;277.15;;;;;;;9.25;100.00;97827.50;5010342;28;20052;-41
2022/10/01 00:53:37;;;;;;;306.42;278.85;;;;;;;9.15;100.00;97837.69;5010527;28;20042;-43
2022/10/01 00:56:07;;;;;;;314.40;284.40;;;;;;;9.03;100.00;97821.88;5008859;28;20034;-43
2022/10/01 00:58:34;;;;;;;297.88;270.70;;;;;;;9.08;100.00;97820.66;5010108;28;20096;-43
2022/10/01 01:01:02;;;;;;;297.90;269.73;;;;;;;9.17;100.00;97808.72;5009661;28;20129;-39
2022/10/01 01:03:29;;;;;;;308.45;277.23;;;;;;;9.25;100.00;97802.06;5008398;28;20049;-36
2022/10/01 01:05:59;;;;;;;296.38;267.60;;;;;;;9.31;100.00;97803.50;5009675;28;20049;-35
2022/10/01 01:08:26;;;;;;;299.38;271.13;;;;;;;9.42;100.00;97798.41;5009930;28;20052;-38
2022/10/01 01:11:02;;;;;;;308.35;277.95;;;;;;;9.33;100.00;97791.13;5007916;28;20037;-39
2022/10/01 01:13:37;;;;;;;294.30;267.80;;;;;;;9.37;100.00;97803.13;5009945;28;20034;-37
2022/10/01 01:16:09;;;;;;;291.15;264.45;;;;;;;9.21;100.00;97804.97;5009348;28;20033;-54
2022/10/01 01:18:41;;;;;;;297.80;269.13;;;;;;;9.14;100.00;97811.56;5009768;28;20346;-35
2022/10/01 01:21:21;;;;;;;300.58;272.80;;;;;;;8.95;100.00;97809.22;5009749;28;20049;-37
2022/10/01 01:24:20;;;;;;;311.58;280.38;;;;;;;9.00;100.00;97804.53;5007717;28;20124;-38
2022/10/01 01:27:02;;;;;;;299.38;270.40;;;;;;;9.03;100.00;97806.13;5019080;28;20061;-45
2022/10/01 01:29:39;;;;;;;300.40;270.75;;;;;;;8.99;100.00;97802.00;5009608;28;20045;-39
2022/10/01 01:32:13;;;;;;;297.45;268.02;;;;;;;8.94;100.00;97802.28;5009442;28;20073;-51
2022/10/01 01:34:45;;;;;;;300.75;270.08;;;;;;;9.04;100.00;97803.41;5009355;28;20473;-37
2022/10/01 01:37:17;;;;;;;295.38;265.77;;;;;;;9.00;100.00;97809.78;5009575;28;20185;-40
2022/10/01 01:39:50;;;;;;;313.33;280.55;;;;;;;8.91;100.00;97804.25;5007552;28;20125;-40
2022/10/01 01:42:23;;;;;;;292.80;262.92;;;;;;;8.95;100.00;97801.34;5008828;28;20350;-44
2022/10/01 01:44:57;;;;;;;299.38;269.08;;;;;;;8.89;100.00;97800.88;5009646;28;20038;-36
2022/10/01 01:47:29;;;;;;;322.65;290.77;;;;;;;8.78;100.00;97811.19;5008215;28;20037;-38
2022/10/01 01:49:57;;;;;;;308.27;279.60;;;;;;;8.87;100.00;97811.47;5009270;28;20099;-36
2022/10/01 01:52:25;;;;;;;303.38;274.17;;;;;;;8.92;100.00;97811.19;5008848;28;20041;-54
2022/10/01 01:54:55;;;;;;;318.30;287.13;;;;;;;8.88;100.00;97807.03;5008203;28;20034;-36
2022/10/01 01:57:23;;;;;;;299.15;272.17;;;;;;;8.84;100.00;97818.66;5009378;28;20497;-34
2022/10/01 01:59:50;;;;;;;293.65;266.92;;;;;;;8.84;100.00;97818.66;5024267;28;20125;-36
2022/10/01 02:02:24;;;;;;;314.90;284.67;;;;;;;8.81;100.00;97818.88;5007365;28;20149;-33
2022/10/01 02:04:54;;;;;;;299.45;273.20;;;;;;;8.82;100.00;97810.88;5009091;28;20366;-35
2022/10/01 02:07:41;;;;;;;301.05;274.60;;;;;;;8.80;100.00;97811.91;5009266;28;20042;-36
2022/10/01 02:10:24;;;;;;;302.52;276.02;;;;;;;8.84;100.00;97810.78;5009395;28;20038;-36
2022/10/01 02:13:07;;;;;;;310.90;282.35;;;;;;;8.80;100.00;97819.78;5007546;28;20067;-36
2022/10/01 02:15:42;;;;;;;299.65;273.13;;;;;;;8.63;100.00;97818.19;5009355;28;20038;-41
2022/10/01 02:18:17;;;;;;;311.33;283.60;;;;;;;8.68;100.00;97805.66;5008192;28;20045;-55
2022/10/01 02:20:48;;;;;;;303.17;277.40;;;;;;;8.75;100.00;97824.47;4989656;28;20041;-38
2022/10/01 02:23:21;;;;;;;303.40;277.77;;;;;;;8.72;100.00;97833.38;5025809;28;20362;-40
2022/10/01 02:25:51;;;;;;;316.55;289.05;;;;;;;8.72;100.00;97833.38;5026989;28;20064;-36
2022/10/01 02:28:22;;;;;;;315.23;291.33;;;;;;;8.72;100.00;97825.50;5028833;28;20045;-38
2022/10/01 02:30:52;;;;;;;307.40;284.17;;;;;;;8.69;100.00;97824.84;5009407;28;20377;-44
2022/10/01 02:33:25;;;;;;;307.98;282.30;;;;;;;8.69;100.00;97828.31;5007159;28;20126;-38
2022/10/01 02:35:53;;;;;;;303.00;280.08;;;;;;;8.61;100.00;97827.06;5008667;28;20038;-36
2022/10/01 02:38:24;;;;;;;297.13;274.33;;;;;;;8.68;100.00;97833.66;5008857;28;20034;-38
2022/10/01 02:40:55;;;;;;;303.55;278.30;;;;;;;8.63;100.00;97831.28;5007638;28;20267;-37
2022/10/01 02:43:30;;;;;;;298.02;275.35;;;;;;;8.63;100.00;97827.84;5009004;28;20041;-40
2022/10/01 02:46:03;;;;;;;310.33;285.95;;;;;;;8.70;100.00;97832.63;5007159;28;20053;-54
2022/10/01 02:48:33;;;;;;;296.77;274.20;;;;;;;8.64;100.00;97832.16;5011854;28;20050;-34
2022/10/01 02:51:13;;;;;;;283.90;262.13;;;;;;;8.58;100.00;97832.50;5012319;28;20042;-37
2022/10/01 02:53:45;;;;;;;308.63;283.83;;;;;;;8.60;100.00;97830.66;5010802;28;20117;-35
2022/10/01 02:57:21;;;;;;;303.30;280.92;;;;;;;8.65;100.00;97828.56;5012522;28;20057;-35
2022/10/01 02:59:01;;;;;;;322.00;296.98;;;;;;;8.70;100.00;97837.03;5010592;28;20478;-38
2022/10/01 03:01:28;;;;;;;288.15;266.83;;;;;;;8.69;100.00;97832.69;5014928;28;20046;-40
2022/10/01 03:03:57;;;;;;;307.80;285.70;;;;;;;8.68;100.00;97841.50;5022792;28;20128;-38
2022/10/01 03:06:26;;;;;;;313.08;288.17;;;;;;;8.70;100.00;97829.16;5009323;28;20038;-36
2022/10/01 03:08:53;;;;;;;286.95;266.25;;;;;;;8.64;100.00;97832.16;5011244;28;20390;-38
2022/10/01 03:11:21;;;;;;;300.08;278.77;;;;;;;8.78;100.00;97829.56;5012174;28;20379;-35
2022/10/01 03:13:48;;;;;;;305.85;282.20;;;;;;;8.71;100.00;97833.47;5010242;28;20402;-43
2022/10/01 03:16:16;;;;;;;301.33;280.02;;;;;;;8.63;100.00;97827.84;5011544;28;20129;-38
2022/10/01 03:18:43;;;;;;;294.75;273.92;;;;;;;8.53;100.00;97839.81;5012070;28;20034;-33
2022/10/01 03:21:12;;;;;;;296.75;275.48;;;;;;;8.44;100.00;97832.50;5011390;28;20520;-37
2022/10/01 03:23:39;;;;;;;298.05;275.48;;;;;;;8.49;100.00;97833.91;5011249;28;20366;-34
2022/10/01 03:26:07;;;;;;;299.70;278.65;;;;;;;8.51;100.00;97831.16;5011628;28;20120;-39
2022/10/01 03:28:35;;;;;;;298.23;277.20;;;;;;;8.52;100.00;97835.50;5011743;28;20042;-36
2022/10/01 03:31:08;;;;;;;315.40;290.90;;;;;;;8.52;100.00;97830.25;5009971;28;20041;-38
2022/10/01 03:33:36;;;;;;;308.35;287.00;;;;;;;8.42;100.00;97831.72;5011424;28;20046;-38
2022/10/01 03:36:04;;;;;;;295.35;274.48;;;;;;;8.33;100.00;97829.66;5011784;28;20046;-38
2022/10/01 03:38:33;;;;;;;312.23;287.92;;;;;;;8.41;100.00;97827.44;5009196;28;20129;-45
2022/10/01 03:41:00;;;;;;;300.50;279.40;;;;;;;8.42;100.00;97829.09;5028231;28;20046;-35
2022/10/01 03:43:29;;;;;;;305.92;284.70;;;;;;;8.32;100.00;97830.56;5011633;28;20133;-35
2022/10/01 03:45:56;;;;;;;336.95;311.38;;;;;;;8.30;100.00;97830.66;5009347;28;20041;-36
2022/10/01 03:48:25;;;;;;;307.15;285.75;;;;;;;8.38;100.00;97822.34;5011267;28;20076;-36
2022/10/01 03:50:54;;;;;;;352.23;327.95;;;;;;;8.32;100.00;97822.72;5011604;28;20052;-37
2022/10/01 03:53:21;;;;;;;357.65;331.27;;;;;;;8.13;100.00;97808.03;5009080;28;20073;-36
2022/10/01 03:55:51;;;;;;;334.48;311.25;;;;;;;8.25;100.00;97824.84;5026723;28;20100;-35
2022/10/01 03:58:18;;;;;;;343.95;320.20;;;;;;;8.15;100.00;97815.00;5011039;28;20116;-36
2022/10/01 04:00:47;;;;;;;312.17;290.20;;;;;;;8.19;100.00;97819.13;5010297;28;20050;-38
2022/10/01 04:03:14;;;;;;;298.45;276.38;;;;;;;8.20;100.00;97818.19;5010627;28;20030;-38
2022/10/01 04:05:42;;;;;;;292.85;272.13;;;;;;;8.07;100.00;97810.19;5011140;28;20050;-41
2022/10/01 04:08:10;;;;;;;301.20;280.17;;;;;;;8.04;100.00;97810.34;5010718;28;20034;-45
2022/10/01 04:10:38;;;;;;;308.42;284.73;;;;;;;8.03;100.00;97812.16;5008368;28;20041;-37
2022/10/01 04:13:07;;;;;;;295.05;274.48;;;;;;;7.99;100.00;97815.03;5010391;28;20052;-40
2022/10/01 04:15:35;;;;;;;302.05;281.23;;;;;;;8.01;100.00;97803.53;5009763;28;20045;-39
2022/10/01 04:18:05;;;;;;;311.77;288.10;;;;;;;8.04;100.00;97800.72;5007411;28;20042;-39
2022/10/01 04:20:33;;;;;;;286.55;266.15;;;;;;;7.96;100.00;97805.56;5009923;28;20038;-37
2022/10/01 04:23:01;;;;;;;294.15;273.52;;;;;;;8.03;100.00;97806.91;5009730;28;20045;-41
2022/10/01 04:25:29;;;;;;;288.17;265.45;;;;;;;8.13;100.00;97806.38;5008664;28;20038;-41
2022/10/01 04:27:59;;;;;;;290.20;269.67;;;;;;;8.23;100.00;97802.28;5010556;28;20038;-37
2022/10/01 04:30:30;;;;;;;294.75;273.95;;;;;;;8.07;100.00;97795.31;5010044;28;20049;-38
2022/10/01 04:32:57;;;;;;;297.15;274.13;;;;;;;7.97;100.00;97782.81;5008395;28;20042;-40
2022/10/01 04:35:25;;;;;;;280.63;260.70;;;;;;;8.05;100.00;97789.31;5010061;28;20046;-42
2022/10/01 04:37:57;;;;;;;300.83;279.95;;;;;;;8.11;100.00;97784.66;5009281;28;20077;-38
2022/10/01 04:40:25;;;;;;;310.38;287.05;;;;;;;8.13;100.00;97785.41;5008560;28;20548;-37
2022/10/01 04:42:53;;;;;;;294.33;273.80;;;;;;;8.15;100.00;97799.28;5009949;28;20030;-37
2022/10/01 04:45:20;;;;;;;304.98;284.05;;;;;;;7.91;100.00;97802.34;5008606;28;20414;-36
2022/10/01 04:47:50;;;;;;;286.98;266.65;;;;;;;8.03;100.00;97800.81;5009502;28;20044;-55
2022/10/01 04:50:19;;;;;;;301.75;279.50;;;;;;;8.17;100.00;97803.50;5009578;28;20038;-39
2022/10/01 04:52:50;;;;;;;299.15;278.38;;;;;;;8.20;100.00;97807.69;5010040;28;20141;-38
2022/10/01 04:55:19;;;;;;;307.60;286.25;;;;;;;8.23;100.00;97810.16;5008796;28;20042;-49
2022/10/01 04:57:47;;;;;;;298.83;276.98;;;;;;;8.22;100.00;97811.09;5009244;28;20030;-41
2022/10/01 05:00:17;;;;;;;300.77;279.70;;;;;;;8.26;100.00;97817.84;5040151;28;20100;-40
2022/10/01 05:02:45;;;;;;;305.45;284.30;;;;;;;8.32;100.00;97820.09;5008242;28;20137;-55
2022/10/01 05:05:15;;;;;;;317.10;293.10;;;;;;;8.21;100.00;97828.59;5007931;28;20038;-38
2022/10/01 05:07:42;;;;;;;295.27;274.55;;;;;;;8.27;100.00;97819.53;5018746;28;20045;-37
2022/10/01 05:10:13;;;;;;;306.65;285.48;;;;;;;8.31;100.00;97818.41;5003505;28;20042;-42
2022/10/01 05:12:41;;;;;;;324.10;299.02;;;;;;;8.33;100.00;97806.91;5007908;28;20053;-38
2022/10/01 05:15:09;;;;;;;306.83;285.48;;;;;;;8.43;100.00;97809.81;5014331;28;20042;-36
2022/10/01 05:17:36;;;;;;;294.58;274.02;;;;;;;8.33;100.00;97809.50;4990019;28;20057;-40
2022/10/01 05:20:08;;;;;;;314.75;290.77;;;;;;;8.31;100.00;97811.41;5009185;28;20046;-38
2022/10/01 05:22:37;;;;;;;302.05;281.35;;;;;;;8.39;100.00;97810.94;5022056;28;20048;-38
2022/10/01 05:25:05;;;;;;;297.25;276.58;;;;;;;8.36;100.00;97811.09;5017968;28;20057;-38
2022/10/01 05:27:35;;;;;;;306.48;282.55;;;;;;;8.41;100.00;97812.53;5027195;28;20037;-36
2022/10/01 05:30:02;;;;;;;303.73;282.88;;;;;;;8.50;100.00;97813.75;5024094;28;20044;-40
2022/10/01 05:32:30;;;;;;;299.95;278.95;;;;;;;8.39;100.00;97806.53;5009231;28;20060;-35
2022/10/01 05:34:57;;;;;;;302.83;279.67;;;;;;;8.44;100.00;97808.91;5007215;28;20145;-41
2022/10/01 05:37:33;;;;;;;291.92;271.33;;;;;;;8.56;100.00;97811.59;5024660;28;20137;-40
2022/10/01 05:40:03;;;;;;;293.65;273.15;;;;;;;8.62;100.00;97820.88;5019090;28;20034;-42
2022/10/01 05:42:31;;;;;;;307.42;283.33;;;;;;;8.65;100.00;97811.06;5007090;28;20394;-38
2022/10/01 05:44:58;;;;;;;298.52;277.58;;;;;;;8.58;100.00;97815.00;5026760;28;20074;-40
2022/10/01 05:47:26;;;;;;;293.13;272.08;;;;;;;8.65;100.00;97808.47;5013026;28;20195;-36
2022/10/01 05:49:54;;;;;;;298.20;275.80;;;;;;;8.77;100.00;97804.22;5007255;28;20033;-51
2022/10/01 05:52:21;;;;;;;300.90;280.05;;;;;;;8.78;100.00;97795.44;5009084;28;20783;-38
2022/10/01 05:54:48;;;;;;;308.08;286.73;;;;;;;8.83;100.00;97794.22;5009246;28;20050;-39
2022/10/01 05:57:17;;;;;;;289.63;269.13;;;;;;;8.78;100.00;97790.22;5008497;28;20046;-55
2022/10/01 05:59:45;;;;;;;303.20;280.25;;;;;;;8.78;100.00;97784.97;5008199;28;20045;-39
2022/10/01 06:02:12;;;;;;;302.77;281.52;;;;;;;8.61;100.00;97788.59;5007640;28;20045;-40
2022/10/01 06:04:40;;;;;;;302.50;281.17;;;;;;;8.67;100.00;97790.00;5024459;28;20041;-38
2022/10/01 06:07:07;;;;;;;317.15;292.75;;;;;;;8.64;100.00;97787.56;5031131;28;20452;-36
2022/10/01 06:09:35;;;;;;;304.98;283.75;;;;;;;8.74;100.00;97783.47;5014174;28;20458;-44
2022/10/01 06:12:02;;;;;;;299.05;278.35;;;;;;;8.81;100.00;97787.41;5008928;28;20042;-40
2022/10/01 06:14:31;;;;;;;299.48;276.92;;;;;;;8.99;100.00;97787.09;5006554;28;20046;-48
2022/10/01 06:16:58;;;;;;;294.05;273.48;;;;;;;8.95;100.00;97790.00;5008831;28;20038;-38
2022/10/01 06:19:26;;;;;;;295.73;274.80;;;;;;;9.08;100.00;97780.44;4965966;28;90882;-40
2022/10/01 06:21:53;;;;;;;281.30;261.10;;;;;;;8.99;100.00;97770.50;5006675;28;20183;-54
2022/10/01 06:24:21;;;;;;;299.48;276.67;;;;;;;9.14;100.00;97780.06;5010665;28;20372;-41
2022/10/01 06:26:48;;;;;;;293.42;272.85;;;;;;;9.20;100.00;97782.28;4998715;28;20049;-41
2022/10/01 06:29:16;;;;;;;292.98;272.17;;;;;;;9.27;100.00;97771.34;4997056;28;20061;-40
2022/10/01 06:34:52;;;;;;;311.52;288.13;;;;;;;9.14;100.00;97773.03;7406197;19;20695;-50
2022/10/01 06:37:22;;;;;;;295.52;274.42;;;;;;;9.23;100.00;97776.88;7415681;19;20074;-38
2022/10/01 06:45:05;;;;;;;258.45;241.65;;;;;;;21.46;86.64;97708.25;7416624;19;20362;-67
2022/10/01 06:47:36;;;;;;;505.88;462.80;;;;;;;20.42;96.46;97735.19;7412929;19;20018;-71
2022/10/01 06:55:39;;;;;;;1999.90;999.90;;;;;;;18.41;87.17;97741.38;7312778;19;20362;-76
2022/10/01 06:58:14;;;;;;;44.00;40.43;;;;;;;18.34;87.08;97742.16;7182855;19;20012;-72
2022/10/01 07:00:44;;;;;;;148.38;84.43;;;;;;;18.11;87.41;97741.78;7253290;19;20377;-76
2022/10/01 07:04:41;;;;;;;445.65;404.85;;;;;;;9.42;100.00;97788.78;7251790;19;21060;-53
2022/10/01 07:07:10;;;;;;;475.02;433.35;;;;;;;8.92;100.00;97790.22;7358733;19;20379;-55
2022/10/01 07:09:41;;;;;;;465.95;425.58;;;;;;;8.73;100.00;97793.09;7419051;19;20021;-62
2022/10/01 07:12:11;;;;;;;462.77;422.98;;;;;;;8.96;100.00;97789.91;7418255;19;20097;-62
2022/10/01 07:14:42;;;;;;;464.73;423.73;;;;;;;8.83;100.00;97791.63;7415194;19;20022;-50
2022/10/01 07:17:12;;;;;;;475.48;435.02;;;;;;;9.02;100.00;97791.31;7419513;19;20010;-51
2022/10/01 07:19:45;;;;;;;478.88;437.98;;;;;;;8.97;100.00;97791.63;7416219;19;20014;-66
2022/10/01 07:22:16;;;;;;;511.52;469.38;;;;;;;9.02;100.00;97789.53;7418881;19;20010;-49
2022/10/01 07:24:46;;;;;;;503.27;461.90;;;;;;;9.27;100.00;97784.47;7420434;19;20011;-51
2022/10/01 07:27:17;;;;;;;497.83;454.20;;;;;;;9.22;100.00;97780.44;7414308;19;20019;-50
2022/10/01 07:29:47;;;;;;;489.80;448.70;;;;;;;9.10;100.00;97775.94;7417781;19;20007;-60
2022/10/01 07:32:19;;;;;;;485.23;444.10;;;;;;;8.95;100.00;97782.13;7414516;19;20011;-56
2022/10/01 07:34:54;;;;;;;489.10;446.38;;;;;;;8.87;100.00;97773.88;7399419;19;20014;-53
2022/10/01 07:37:24;;;;;;;520.65;476.70;;;;;;;8.70;100.00;97774.91;7402539;19;20078;-62
2022/10/01 07:39:54;;;;;;;494.88;453.10;;;;;;;8.54;100.00;97781.19;7417429;19;20022;-51
2022/10/01 07:42:26;;;;;;;487.60;445.05;;;;;;;8.55;100.00;97781.09;7402566;19;20025;-53
2022/10/01 07:44:55;;;;;;;497.42;454.60;;;;;;;8.78;100.00;97784.97;7410053;19;20014;-52
2022/10/01 07:47:26;;;;;;;517.35;474.23;;;;;;;9.03;100.00;97777.28;7410848;19;20082;-68
2022/10/01 07:49:59;;;;;;;534.35;489.15;;;;;;;9.26;100.00;97788.00;7414871;19;20015;-50
2022/10/01 07:52:29;;;;;;;586.13;535.95;;;;;;;9.19;100.00;97784.09;7416915;19;20010;-50
2022/10/01 07:54:59;;;;;;;605.03;553.28;;;;;;;9.18;100.00;97781.56;7419670;19;20037;-56
2022/10/01 07:57:29;;;;;;;581.22;531.67;;;;;;;9.18;100.00;97784.19;7418144;19;20383;-50
2022/10/01 07:59:59;;;;;;;615.60;563.20;;;;;;;9.17;100.00;97777.22;7418693;19;20533;-57
2022/10/01 08:02:29;;;;;;;623.95;571.40;;;;;;;9.24;100.00;97773.28;7412748;19;20348;-60
2022/10/01 08:07:44;;;;;;;595.03;544.80;;;;;;;9.29;100.00;97787.00;7421679;19;20032;-51
2022/10/01 08:10:14;;;;;;;625.92;572.90;;;;;;;9.21;100.00;97781.34;7416124;19;20018;-53
2022/10/01 08:12:44;;;;;;;589.33;539.88;;;;;;;9.28;100.00;97775.63;7419466;19;20010;-65
2022/10/01 08:15:16;;;;;;;576.38;527.17;;;;;;;9.39;100.00;97765.34;7399023;19;20021;-68
2022/10/01 08:17:46;;;;;;;613.83;560.92;;;;;;;9.48;100.00;97767.34;7390514;19;20074;-51
2022/10/01 08:20:20;;;;;;;544.53;498.80;;;;;;;9.45;100.00;97764.09;7389393;19;20018;-52
2022/10/01 08:22:50;;;;;;;564.75;518.03;;;;;;;9.48;100.00;97762.09;7382836;19;20015;-66
2022/10/01 08:25:20;;;;;;;601.63;550.35;;;;;;;9.44;100.00;97760.63;7391039;19;20006;-50
2022/10/01 08:27:50;;;;;;;588.53;537.85;;;;;;;9.32;100.00;97765.81;7387967;19;20010;-49
2022/10/01 08:30:20;;;;;;;597.97;546.25;;;;;;;9.25;100.00;97754.00;7384920;19;20494;-53
2022/10/01 08:32:50;;;;;;;527.95;483.33;;;;;;;9.36;100.00;97751.56;7389717;19;20007;-53
2022/10/01 08:35:22;;;;;;;545.22;499.23;;;;;;;9.43;100.00;97744.97;7389466;19;20014;-50
2022/10/01 08:37:55;;;;;;;526.17;480.85;;;;;;;9.35;100.00;97752.50;7382992;19;20002;-50
2022/10/01 08:40:26;;;;;;;525.08;480.98;;;;;;;9.43;100.00;97752.84;7388194;19;20039;-50
2022/10/01 08:43:01;;;;;;;503.17;461.02;;;;;;;9.36;100.00;97751.56;7390624;19;20023;-51
2022/10/01 08:45:38;;;;;;;509.83;466.48;;;;;;;9.37;100.00;97748.00;7385589;19;20545;-50
2022/10/01 08:48:17;;;;;;;596.38;544.40;;;;;;;9.53;100.00;97746.06;7389581;19;20011;-51
2022/10/01 08:50:56;;;;;;;605.65;551.80;;;;;;;9.30;100.00;97744.91;7385741;19;20010;-51
2022/10/01 08:53:34;;;;;;;581.65;530.78;;;;;;;9.46;100.00;97737.75;7387791;19;20508;-57
2022/10/01 08:56:06;;;;;;;583.25;532.45;;;;;;;9.39;100.00;97733.81;7379253;19;20018;-49
2022/10/01 08:58:44;;;;;;;565.45;516.85;;;;;;;9.21;100.00;97740.22;7387406;19;20006;-50
2022/10/01 09:01:15;;;;;;;554.60;506.80;;;;;;;9.27;100.00;97731.97;7385598;19;20015;-58
2022/10/01 09:03:44;;;;;;;535.85;489.33;;;;;;;9.30;100.00;97728.28;7387708;19;20022;-51
2022/10/01 09:06:24;;;;;;;497.42;454.80;;;;;;;9.24;100.00;97734.78;7388992;19;20516;-50
2022/10/01 09:09:25;;;;;;;518.53;473.35;;;;;;;9.35;100.00;97726.22;7381114;19;20466;-50
2022/10/01 09:12:15;;;;;;;484.65;443.58;;;;;;;9.34;100.00;97712.28;7386499;19;20486;-67
2022/10/01 09:15:00;;;;;;;486.67;444.70;;;;;;;9.60;100.00;97723.72;7389247;19;20015;-51
2022/10/01 09:17:46;;;;;;;486.20;443.77;;;;;;;9.61;100.00;97722.75;7384279;19;20018;-52
2022/10/01 09:20:25;;;;;;;502.20;460.25;;;;;;;9.68;100.00;97724.06;7387730;19;20086;-66
2022/10/01 09:23:14;;;;;;;486.00;445.05;;;;;;;9.66;100.00;97723.31;7386526;19;20093;-53
2022/10/01 09:25:49;;;;;;;467.25;428.50;;;;;;;9.61;100.00;97720.13;7387920;19;20002;-55
2022/10/01 09:28:22;;;;;;;487.90;447.02;;;;;;;9.58;100.00;97713.31;7385128;19;20946;-55
2022/10/01 09:30:57;;;;;;;479.63;439.75;;;;;;;9.84;100.00;97706.34;7386999;19;20462;-52
2022/10/01 09:33:33;;;;;;;501.83;459.30;;;;;;;9.88;100.00;97713.09;7384050;19;20415;-50
2022/10/01 09:36:15;;;;;;;497.20;455.33;;;;;;;9.94;100.00;97703.00;7375841;19;20013;-51
2022/10/01 09:38:54;;;;;;;512.05;467.88;;;;;;;10.20;100.00;97695.97;7373583;19;20015;-63
2022/10/01 09:41:25;;;;;;;485.75;443.75;;;;;;;10.32;100.00;97690.72;7384853;19;20480;-51
2022/10/01 09:43:55;;;;;;;491.85;450.05;;;;;;;10.61;100.00;97694.81;7387924;19;20462;-53
2022/10/01 09:46:27;;;;;;;500.48;456.85;;;;;;;10.39;100.00;97691.16;7384568;19;20015;-51
2022/10/01 09:49:02;;;;;;;503.55;460.75;;;;;;;10.37;100.00;97691.28;7387550;19;20399;-55
2022/10/01 09:51:38;;;;;;;489.05;446.90;;;;;;;10.56;100.00;97682.94;7385335;19;20089;-69
2022/10/01 09:54:17;;;;;;;475.05;434.98;;;;;;;10.51;100.00;97685.06;7387591;19;20002;-51
2022/10/01 09:56:51;;;;;;;480.55;440.20;;;;;;;10.71;100.00;97690.66;7387132;19;20036;-59
2022/10/01 09:59:26;;;;;;;519.28;473.67;;;;;;;10.76;100.00;97679.81;7387571;19;20550;-50
2022/10/01 10:02:00;;;;;;;486.33;445.42;;;;;;;10.97;100.00;97681.75;7386212;19;20031;-66
2022/10/01 10:04:31;;;;;;;494.42;451.00;;;;;;;10.95;100.00;97681.00;7379033;19;20409;-50
2022/10/01 10:07:04;;;;;;;499.58;457.58;;;;;;;11.18;100.00;97680.22;7387650;19;20021;-54
2022/10/01 10:09:40;;;;;;;504.85;462.27;;;;;;;10.90;100.00;97671.75;7387436;19;20007;-54
2022/10/01 10:12:28;;;;;;;492.55;451.08;;;;;;;10.84;100.00;97665.13;7387775;19;20519;-52
2022/10/01 10:14:58;;;;;;;493.33;451.65;;;;;;;10.68;100.00;97661.06;7389554;19;20029;-53
2022/10/01 10:17:28;;;;;;;509.15;464.65;;;;;;;10.66;100.00;97655.06;7387877;19;20359;-50
2022/10/01 10:19:59;;;;;;;488.20;447.08;;;;;;;10.68;100.00;97659.28;7389426;19;20498;-50
2022/10/01 10:22:31;;;;;;;493.02;450.88;;;;;;;10.50;100.00;97654.44;7384542;19;20018;-64
2022/10/01 10:25:14;;;;;;;483.63;441.63;;;;;;;10.67;100.00;97647.06;7385765;19;20007;-54
2022/10/01 10:27:54;;;;;;;461.33;421.85;;;;;;;10.80;100.00;97647.06;7385723;19;20035;-56
2022/10/01 10:30:26;;;;;;;475.15;433.90;;;;;;;10.78;100.00;97643.69;7388104;19;20006;-56
2022/10/01 10:33:04;;;;;;;504.65;458.98;;;;;;;11.08;100.00;97634.44;7388483;19;20015;-55
2022/10/01 10:35:33;;;;;;;521.92;475.30;;;;;;;11.38;100.00;97633.97;7384439;19;20025;-51
2022/10/01 10:38:04;;;;;;;507.40;462.83;;;;;;;11.47;100.00;97622.78;7388141;19;20014;-53
2022/10/01 10:40:43;;;;;;;492.98;448.98;;;;;;;11.59;100.00;97627.13;7386998;19;20380;-54
2022/10/01 10:43:21;;;;;;;493.13;448.98;;;;;;;11.59;100.00;97615.75;7385886;19;20031;-51
2022/10/01 10:45:54;;;;;;;505.63;461.35;;;;;;;11.73;100.00;97616.41;7388395;19;20007;-55
2022/10/01 10:48:28;;;;;;;493.02;448.70;;;;;;;11.64;100.00;97600.44;7383729;19;20021;-51
2022/10/01 10:51:02;;;;;;;469.65;428.95;;;;;;;11.68;100.00;97586.09;7385929;19;20018;-53
2022/10/01 10:53:42;;;;;;;486.27;443.98;;;;;;;11.80;100.00;97593.91;7383844;19;20018;-57
2022/10/01 10:56:22;;;;;;;481.15;439.65;;;;;;;11.82;100.00;97591.97;7385797;19;20021;-50
2022/10/01 10:58:53;;;;;;;483.30;441.17;;;;;;;11.66;100.00;97582.72;7384117;19;20007;-67
2022/10/01 11:01:30;;;;;;;453.65;412.67;;;;;;;11.55;100.00;97583.53;7386193;19;20533;-53
2022/10/01 11:04:02;;;;;;;449.88;410.10;;;;;;;11.72;100.00;97567.28;7385257;19;20031;-54
2022/10/01 11:06:32;;;;;;;473.77;430.75;;;;;;;11.55;100.00;97561.59;7381679;19;20031;-49
2022/10/01 11:09:06;;;;;;;464.55;423.17;;;;;;;11.85;100.00;97554.84;7387463;19;20014;-50
2022/10/01 11:11:51;;;;;;;458.83;418.42;;;;;;;12.07;100.00;97547.00;7387290;19;20018;-53
2022/10/01 11:14:34;;;;;;;444.95;405.20;;;;;;;11.71;100.00;97541.06;7387297;19;20022;-55
2022/10/01 11:17:22;;;;;;;467.60;424.85;;;;;;;11.71;100.00;97538.41;7383125;19;20015;-66
2022/10/01 11:20:14;;;;;;;462.05;421.00;;;;;;;12.18;100.00;97531.16;7388189;19;20014;-50
2022/10/01 11:22:57;;;;;;;467.25;425.25;;;;;;;11.99;100.00;97524.81;7385693;19;20014;-50
2022/10/01 11:25:44;;;;;;;485.75;442.90;;;;;;;12.39;100.00;97520.72;7385511;19;20011;-53
2022/10/01 11:28:36;;;;;;;490.95;447.95;;;;;;;12.58;100.00;97516.50;7385029;19;20128;-52
2022/10/01 11:31:17;;;;;;;504.50;458.98;;;;;;;12.42;100.00;97509.94;7381668;19;20011;-52
2022/10/01 11:34:11;;;;;;;484.25;441.83;;;;;;;12.20;100.00;97504.69;7384159;19;20010;-53
2022/10/01 11:36:47;;;;;;;481.65;439.25;;;;;;;12.11;100.00;97498.31;7385410;19;20522;-51
2022/10/01 11:39:18;;;;;;;483.35;441.45;;;;;;;12.12;100.00;97499.19;7384427;19;20039;-51